Terminal Aerodrome Forecast
Issued by NWS Austin/San Antonio, TX

Home | Current Version | Previous Version | Text Only | Print | Product List | Glossary On
Versions: 1 2 3 4 5 6 7 8 9 10 11 12 13 14 15 16 17 18
367
FTUS44 KEWX 252147 AAA
TAFSAT
TAF AMD
KSAT 252147Z 2522/2624 15005KT P6SM SHRA BKN050 BKN250
     FM252230 13006KT P6SM SCT060 BKN250
      TEMPO 2604/2607 4SM TSRA BKN030CB
     FM260700 VRB03KT P6SM BKN050
     FM261700 13005KT P6SM BKN050 PROB30 2618/2624 -TSRA BKN030CB=

USA.gov is the U.S. government's official web portal to all federal, state and local government web resources and services.